sensor_id;sensor_type;location;lat;lon;timestamp;P1;durP1;ratioP1;P2;durP2;ratioP2
45007;SDS011;30743;52.008;5.644;2023-07-30T00:01:47;3.83;;;1.75;;
45007;SDS011;30743;52.008;5.644;2023-07-30T00:04:12;7.15;;;2.00;;
45007;SDS011;30743;52.008;5.644;2023-07-30T00:06:38;5.18;;;2.00;;
45007;SDS011;30743;52.008;5.644;2023-07-30T00:09:03;6.25;;;2.55;;
45007;SDS011;30743;52.008;5.644;2023-07-30T00:11:29;5.70;;;1.85;;
45007;SDS011;30743;52.008;5.644;2023-07-30T00:13:54;4.25;;;2.05;;
45007;SDS011;30743;52.008;5.644;2023-07-30T00:16:20;6.38;;;2.50;;
45007;SDS011;30743;52.008;5.644;2023-07-30T00:18:45;7.95;;;2.40;;
45007;SDS011;30743;52.008;5.644;2023-07-30T00:21:11;4.20;;;1.88;;
45007;SDS011;30743;52.008;5.644;2023-07-30T00:23:36;5.43;;;2.20;;
45007;SDS011;30743;52.008;5.644;2023-07-30T00:26:02;4.43;;;1.92;;
45007;SDS011;30743;52.008;5.644;2023-07-30T00:28:27;7.88;;;1.80;;
45007;SDS011;30743;52.008;5.644;2023-07-30T00:30:52;4.43;;;1.95;;
45007;SDS011;30743;52.008;5.644;2023-07-30T00:33:18;5.03;;;1.88;;
45007;SDS011;30743;52.008;5.644;2023-07-30T00:35:43;7.68;;;1.90;;
45007;SDS011;30743;52.008;5.644;2023-07-30T00:38:09;5.63;;;1.92;;
45007;SDS011;30743;52.008;5.644;2023-07-30T00:40:41;3.67;;;1.73;;
45007;SDS011;30743;52.008;5.644;2023-07-30T00:43:06;5.32;;;1.77;;
45007;SDS011;30743;52.008;5.644;2023-07-30T00:45:32;4.85;;;2.25;;
45007;SDS011;30743;52.008;5.644;2023-07-30T00:47:59;4.63;;;1.88;;
45007;SDS011;30743;52.008;5.644;2023-07-30T00:50:25;5.75;;;1.92;;
45007;SDS011;30743;52.008;5.644;2023-07-30T00:52:50;3.40;;;1.52;;
45007;SDS011;30743;52.008;5.644;2023-07-30T00:55:16;5.13;;;1.65;;
45007;SDS011;30743;52.008;5.644;2023-07-30T00:57:42;4.18;;;2.00;;
45007;SDS011;30743;52.008;5.644;2023-07-30T01:00:08;3.63;;;1.88;;
45007;SDS011;30743;52.008;5.644;2023-07-30T01:02:35;4.50;;;2.15;;
45007;SDS011;30743;52.008;5.644;2023-07-30T01:05:01;6.38;;;1.98;;
45007;SDS011;30743;52.008;5.644;2023-07-30T01:07:29;3.25;;;1.55;;
45007;SDS011;30743;52.008;5.644;2023-07-30T01:09:55;3.33;;;1.40;;
45007;SDS011;30743;52.008;5.644;2023-07-30T01:12:21;4.18;;;1.48;;
45007;SDS011;30743;52.008;5.644;2023-07-30T01:14:48;5.72;;;1.85;;
45007;SDS011;30743;52.008;5.644;2023-07-30T01:17:14;3.90;;;1.98;;
45007;SDS011;30743;52.008;5.644;2023-07-30T01:19:40;6.03;;;1.80;;
45007;SDS011;30743;52.008;5.644;2023-07-30T01:22:06;5.15;;;1.88;;
45007;SDS011;30743;52.008;5.644;2023-07-30T01:24:31;5.55;;;1.80;;
45007;SDS011;30743;52.008;5.644;2023-07-30T01:27:04;4.68;;;1.67;;
45007;SDS011;30743;52.008;5.644;2023-07-30T01:29:33;5.18;;;1.95;;
45007;SDS011;30743;52.008;5.644;2023-07-30T01:32:15;5.10;;;2.00;;
45007;SDS011;30743;52.008;5.644;2023-07-30T01:34:42;6.65;;;1.98;;
45007;SDS011;30743;52.008;5.644;2023-07-30T01:37:11;4.93;;;1.40;;
45007;SDS011;30743;52.008;5.644;2023-07-30T01:39:39;5.38;;;1.80;;
45007;SDS011;30743;52.008;5.644;2023-07-30T01:42:07;10.03;;;1.63;;
45007;SDS011;30743;52.008;5.644;2023-07-30T01:44:32;6.57;;;1.73;;
45007;SDS011;30743;52.008;5.644;2023-07-30T01:46:58;6.40;;;1.60;;
45007;SDS011;30743;52.008;5.644;2023-07-30T01:49:23;7.13;;;2.03;;
45007;SDS011;30743;52.008;5.644;2023-07-30T01:51:49;7.00;;;2.20;;
45007;SDS011;30743;52.008;5.644;2023-07-30T01:54:14;6.40;;;1.70;;
45007;SDS011;30743;52.008;5.644;2023-07-30T01:56:40;6.70;;;1.80;;
45007;SDS011;30743;52.008;5.644;2023-07-30T01:59:05;7.07;;;1.77;;
45007;SDS011;30743;52.008;5.644;2023-07-30T02:01:31;5.80;;;2.17;;
45007;SDS011;30743;52.008;5.644;2023-07-30T02:03:56;6.57;;;1.92;;
45007;SDS011;30743;52.008;5.644;2023-07-30T02:06:22;4.15;;;1.77;;
45007;SDS011;30743;52.008;5.644;2023-07-30T02:08:47;8.85;;;2.35;;
45007;SDS011;30743;52.008;5.644;2023-07-30T02:11:13;5.80;;;2.20;;
45007;SDS011;30743;52.008;5.644;2023-07-30T02:13:38;4.43;;;2.03;;
45007;SDS011;30743;52.008;5.644;2023-07-30T02:16:04;4.97;;;1.63;;
45007;SDS011;30743;52.008;5.644;2023-07-30T02:18:29;4.70;;;1.75;;
45007;SDS011;30743;52.008;5.644;2023-07-30T02:20:55;4.50;;;1.95;;
45007;SDS011;30743;52.008;5.644;2023-07-30T02:23:20;9.35;;;2.40;;
45007;SDS011;30743;52.008;5.644;2023-07-30T02:25:46;10.43;;;2.00;;
45007;SDS011;30743;52.008;5.644;2023-07-30T02:28:11;6.43;;;1.80;;
45007;SDS011;30743;52.008;5.644;2023-07-30T02:30:37;8.45;;;1.75;;
45007;SDS011;30743;52.008;5.644;2023-07-30T02:33:02;8.80;;;2.40;;
45007;SDS011;30743;52.008;5.644;2023-07-30T02:35:28;5.00;;;2.20;;
45007;SDS011;30743;52.008;5.644;2023-07-30T02:37:53;4.50;;;2.53;;
45007;SDS011;30743;52.008;5.644;2023-07-30T02:40:19;8.75;;;3.28;;
45007;SDS011;30743;52.008;5.644;2023-07-30T02:42:45;6.38;;;2.17;;
45007;SDS011;30743;52.008;5.644;2023-07-30T02:45:10;8.02;;;1.90;;
45007;SDS011;30743;52.008;5.644;2023-07-30T02:47:36;8.02;;;2.10;;
45007;SDS011;30743;52.008;5.644;2023-07-30T02:50:02;8.30;;;2.28;;
45007;SDS011;30743;52.008;5.644;2023-07-30T02:52:29;8.88;;;2.92;;
45007;SDS011;30743;52.008;5.644;2023-07-30T02:54:54;9.45;;;3.08;;
45007;SDS011;30743;52.008;5.644;2023-07-30T02:57:20;6.60;;;2.20;;
45007;SDS011;30743;52.008;5.644;2023-07-30T02:59:45;7.68;;;2.88;;
45007;SDS011;30743;52.008;5.644;2023-07-30T03:02:11;6.88;;;2.67;;
45007;SDS011;30743;52.008;5.644;2023-07-30T03:04:36;12.05;;;2.92;;
45007;SDS011;30743;52.008;5.644;2023-07-30T03:07:02;8.48;;;2.80;;
45007;SDS011;30743;52.008;5.644;2023-07-30T03:09:27;14.32;;;3.63;;
45007;SDS011;30743;52.008;5.644;2023-07-30T03:11:53;6.30;;;3.13;;
45007;SDS011;30743;52.008;5.644;2023-07-30T03:14:19;11.25;;;3.20;;
45007;SDS011;30743;52.008;5.644;2023-07-30T03:16:46;13.55;;;3.65;;
45007;SDS011;30743;52.008;5.644;2023-07-30T03:19:12;11.75;;;4.10;;
45007;SDS011;30743;52.008;5.644;2023-07-30T03:21:37;11.13;;;3.40;;
45007;SDS011;30743;52.008;5.644;2023-07-30T03:24:03;9.68;;;3.35;;
45007;SDS011;30743;52.008;5.644;2023-07-30T03:26:28;8.45;;;3.20;;
45007;SDS011;30743;52.008;5.644;2023-07-30T03:28:54;9.77;;;3.22;;
45007;SDS011;30743;52.008;5.644;2023-07-30T03:31:19;8.00;;;3.20;;
45007;SDS011;30743;52.008;5.644;2023-07-30T03:33:45;8.63;;;3.10;;
45007;SDS011;30743;52.008;5.644;2023-07-30T03:36:11;11.63;;;4.15;;
45007;SDS011;30743;52.008;5.644;2023-07-30T03:38:38;11.27;;;4.35;;
45007;SDS011;30743;52.008;5.644;2023-07-30T03:41:04;10.93;;;3.33;;
45007;SDS011;30743;52.008;5.644;2023-07-30T03:43:31;11.85;;;4.07;;
45007;SDS011;30743;52.008;5.644;2023-07-30T03:45:57;14.00;;;4.82;;
45007;SDS011;30743;52.008;5.644;2023-07-30T03:48:22;11.93;;;4.18;;
45007;SDS011;30743;52.008;5.644;2023-07-30T03:50:48;10.00;;;4.45;;
45007;SDS011;30743;52.008;5.644;2023-07-30T03:53:13;12.90;;;4.45;;
45007;SDS011;30743;52.008;5.644;2023-07-30T03:55:39;13.23;;;4.85;;
45007;SDS011;30743;52.008;5.644;2023-07-30T03:58:05;16.42;;;6.00;;
45007;SDS011;30743;52.008;5.644;2023-07-30T04:00:30;17.98;;;5.22;;
45007;SDS011;30743;52.008;5.644;2023-07-30T04:02:56;15.38;;;4.97;;
45007;SDS011;30743;52.008;5.644;2023-07-30T04:05:21;11.45;;;4.47;;
45007;SDS011;30743;52.008;5.644;2023-07-30T04:07:47;15.88;;;4.80;;
45007;SDS011;30743;52.008;5.644;2023-07-30T04:10:12;14.20;;;5.28;;
45007;SDS011;30743;52.008;5.644;2023-07-30T04:12:37;17.67;;;5.43;;
45007;SDS011;30743;52.008;5.644;2023-07-30T04:15:03;13.70;;;5.47;;
45007;SDS011;30743;52.008;5.644;2023-07-30T04:17:29;15.52;;;5.47;;
45007;SDS011;30743;52.008;5.644;2023-07-30T04:19:55;16.38;;;5.03;;
45007;SDS011;30743;52.008;5.644;2023-07-30T04:22:20;13.60;;;4.93;;
45007;SDS011;30743;52.008;5.644;2023-07-30T04:24:46;12.40;;;4.95;;
45007;SDS011;30743;52.008;5.644;2023-07-30T04:27:12;18.55;;;5.43;;
45007;SDS011;30743;52.008;5.644;2023-07-30T04:29:37;19.13;;;5.63;;
45007;SDS011;30743;52.008;5.644;2023-07-30T04:32:03;16.50;;;5.45;;
45007;SDS011;30743;52.008;5.644;2023-07-30T04:34:29;12.70;;;5.60;;
45007;SDS011;30743;52.008;5.644;2023-07-30T04:36:54;19.13;;;5.95;;
45007;SDS011;30743;52.008;5.644;2023-07-30T04:39:19;17.42;;;5.82;;
45007;SDS011;30743;52.008;5.644;2023-07-30T04:41:45;15.85;;;6.85;;
45007;SDS011;30743;52.008;5.644;2023-07-30T04:44:10;14.60;;;5.72;;
45007;SDS011;30743;52.008;5.644;2023-07-30T04:46:36;16.25;;;5.63;;
45007;SDS011;30743;52.008;5.644;2023-07-30T04:49:02;16.13;;;6.25;;
45007;SDS011;30743;52.008;5.644;2023-07-30T04:51:29;16.05;;;6.50;;
45007;SDS011;30743;52.008;5.644;2023-07-30T04:53:54;14.30;;;5.75;;
45007;SDS011;30743;52.008;5.644;2023-07-30T04:56:20;16.10;;;6.38;;
45007;SDS011;30743;52.008;5.644;2023-07-30T04:58:45;16.77;;;6.05;;
45007;SDS011;30743;52.008;5.644;2023-07-30T05:01:11;11.57;;;5.63;;
45007;SDS011;30743;52.008;5.644;2023-07-30T05:03:36;15.35;;;6.43;;
45007;SDS011;30743;52.008;5.644;2023-07-30T05:06:02;13.40;;;5.45;;
45007;SDS011;30743;52.008;5.644;2023-07-30T05:08:27;13.85;;;5.53;;
45007;SDS011;30743;52.008;5.644;2023-07-30T05:10:53;13.60;;;5.72;;
45007;SDS011;30743;52.008;5.644;2023-07-30T05:13:19;16.58;;;5.80;;
45007;SDS011;30743;52.008;5.644;2023-07-30T05:15:44;14.20;;;5.60;;
45007;SDS011;30743;52.008;5.644;2023-07-30T05:18:10;17.90;;;6.45;;
45007;SDS011;30743;52.008;5.644;2023-07-30T05:20:35;11.65;;;6.22;;
45007;SDS011;30743;52.008;5.644;2023-07-30T05:23:01;18.63;;;5.93;;
45007;SDS011;30743;52.008;5.644;2023-07-30T05:25:27;22.80;;;6.28;;
45007;SDS011;30743;52.008;5.644;2023-07-30T05:27:53;16.30;;;6.82;;
45007;SDS011;30743;52.008;5.644;2023-07-30T05:30:18;16.50;;;5.97;;
45007;SDS011;30743;52.008;5.644;2023-07-30T05:32:44;23.63;;;6.63;;
45007;SDS011;30743;52.008;5.644;2023-07-30T05:35:09;15.57;;;5.65;;
45007;SDS011;30743;52.008;5.644;2023-07-30T05:37:35;17.30;;;6.43;;
45007;SDS011;30743;52.008;5.644;2023-07-30T05:40:00;21.05;;;7.85;;
45007;SDS011;30743;52.008;5.644;2023-07-30T05:42:26;20.02;;;6.88;;
45007;SDS011;30743;52.008;5.644;2023-07-30T05:44:51;16.55;;;6.07;;
45007;SDS011;30743;52.008;5.644;2023-07-30T05:47:17;16.67;;;6.72;;
45007;SDS011;30743;52.008;5.644;2023-07-30T05:49:42;14.15;;;6.65;;
45007;SDS011;30743;52.008;5.644;2023-07-30T05:52:08;12.48;;;6.45;;
45007;SDS011;30743;52.008;5.644;2023-07-30T05:54:33;15.93;;;6.93;;
45007;SDS011;30743;52.008;5.644;2023-07-30T05:56:59;15.98;;;6.93;;
45007;SDS011;30743;52.008;5.644;2023-07-30T05:59:24;16.95;;;6.47;;
45007;SDS011;30743;52.008;5.644;2023-07-30T06:01:50;16.85;;;6.30;;
45007;SDS011;30743;52.008;5.644;2023-07-30T06:04:15;19.42;;;7.00;;
45007;SDS011;30743;52.008;5.644;2023-07-30T06:06:40;18.75;;;7.30;;
45007;SDS011;30743;52.008;5.644;2023-07-30T06:09:06;15.95;;;7.65;;
45007;SDS011;30743;52.008;5.644;2023-07-30T06:11:31;13.93;;;6.88;;
45007;SDS011;30743;52.008;5.644;2023-07-30T06:13:57;18.63;;;7.72;;
45007;SDS011;30743;52.008;5.644;2023-07-30T06:16:22;23.98;;;7.65;;
45007;SDS011;30743;52.008;5.644;2023-07-30T06:18:48;18.02;;;7.68;;
45007;SDS011;30743;52.008;5.644;2023-07-30T06:21:13;16.58;;;7.50;;
45007;SDS011;30743;52.008;5.644;2023-07-30T06:23:39;16.50;;;7.25;;
45007;SDS011;30743;52.008;5.644;2023-07-30T06:26:05;15.05;;;7.93;;
45007;SDS011;30743;52.008;5.644;2023-07-30T06:28:30;14.82;;;7.10;;
45007;SDS011;30743;52.008;5.644;2023-07-30T06:30:59;22.58;;;8.55;;
45007;SDS011;30743;52.008;5.644;2023-07-30T06:33:25;17.48;;;6.78;;
45007;SDS011;30743;52.008;5.644;2023-07-30T06:35:51;18.80;;;6.95;;
45007;SDS011;30743;52.008;5.644;2023-07-30T06:38:16;16.92;;;6.95;;
45007;SDS011;30743;52.008;5.644;2023-07-30T06:40:42;15.18;;;7.10;;
45007;SDS011;30743;52.008;5.644;2023-07-30T06:43:07;18.83;;;7.05;;
45007;SDS011;30743;52.008;5.644;2023-07-30T06:45:33;13.60;;;6.57;;
45007;SDS011;30743;52.008;5.644;2023-07-30T06:47:58;17.95;;;6.93;;
45007;SDS011;30743;52.008;5.644;2023-07-30T06:50:24;15.50;;;6.82;;
45007;SDS011;30743;52.008;5.644;2023-07-30T06:52:49;17.85;;;6.85;;
45007;SDS011;30743;52.008;5.644;2023-07-30T06:55:15;13.68;;;7.05;;
45007;SDS011;30743;52.008;5.644;2023-07-30T06:57:40;11.70;;;6.05;;
45007;SDS011;30743;52.008;5.644;2023-07-30T07:00:06;15.57;;;6.78;;
45007;SDS011;30743;52.008;5.644;2023-07-30T07:02:32;14.15;;;6.38;;
45007;SDS011;30743;52.008;5.644;2023-07-30T07:04:58;20.13;;;6.75;;
45007;SDS011;30743;52.008;5.644;2023-07-30T07:07:23;18.15;;;5.97;;
45007;SDS011;30743;52.008;5.644;2023-07-30T07:09:49;17.25;;;6.68;;
45007;SDS011;30743;52.008;5.644;2023-07-30T07:12:14;14.43;;;6.25;;
45007;SDS011;30743;52.008;5.644;2023-07-30T07:14:40;13.90;;;6.25;;
45007;SDS011;30743;52.008;5.644;2023-07-30T07:17:07;12.68;;;5.97;;
45007;SDS011;30743;52.008;5.644;2023-07-30T07:19:32;9.00;;;5.15;;
45007;SDS011;30743;52.008;5.644;2023-07-30T07:22:01;13.32;;;6.13;;
45007;SDS011;30743;52.008;5.644;2023-07-30T07:24:29;16.50;;;6.43;;
45007;SDS011;30743;52.008;5.644;2023-07-30T07:26:56;13.38;;;5.65;;
45007;SDS011;30743;52.008;5.644;2023-07-30T07:29:21;12.30;;;5.45;;
45007;SDS011;30743;52.008;5.644;2023-07-30T07:31:47;15.75;;;5.80;;
45007;SDS011;30743;52.008;5.644;2023-07-30T07:34:13;13.15;;;5.43;;
45007;SDS011;30743;52.008;5.644;2023-07-30T07:36:38;14.98;;;5.88;;
45007;SDS011;30743;52.008;5.644;2023-07-30T07:39:04;13.38;;;5.45;;
45007;SDS011;30743;52.008;5.644;2023-07-30T07:41:30;12.68;;;4.68;;
45007;SDS011;30743;52.008;5.644;2023-07-30T07:43:55;13.93;;;6.38;;
45007;SDS011;30743;52.008;5.644;2023-07-30T07:46:21;11.55;;;4.47;;
45007;SDS011;30743;52.008;5.644;2023-07-30T07:48:46;11.80;;;5.03;;
45007;SDS011;30743;52.008;5.644;2023-07-30T07:51:12;11.15;;;4.95;;
45007;SDS011;30743;52.008;5.644;2023-07-30T07:53:38;15.70;;;5.22;;
45007;SDS011;30743;52.008;5.644;2023-07-30T07:56:04;14.75;;;5.18;;
45007;SDS011;30743;52.008;5.644;2023-07-30T07:58:30;12.80;;;4.20;;
45007;SDS011;30743;52.008;5.644;2023-07-30T08:00:56;12.35;;;4.03;;
45007;SDS011;30743;52.008;5.644;2023-07-30T08:03:22;9.18;;;3.65;;
45007;SDS011;30743;52.008;5.644;2023-07-30T08:05:49;11.82;;;3.72;;
45007;SDS011;30743;52.008;5.644;2023-07-30T08:08:15;13.23;;;4.18;;
45007;SDS011;30743;52.008;5.644;2023-07-30T08:10:40;11.77;;;3.70;;
45007;SDS011;30743;52.008;5.644;2023-07-30T08:13:08;11.48;;;3.95;;
45007;SDS011;30743;52.008;5.644;2023-07-30T08:15:35;9.55;;;3.88;;
45007;SDS011;30743;52.008;5.644;2023-07-30T08:18:00;8.80;;;3.95;;
45007;SDS011;30743;52.008;5.644;2023-07-30T08:20:26;12.05;;;3.88;;
45007;SDS011;30743;52.008;5.644;2023-07-30T08:22:51;8.27;;;3.72;;
45007;SDS011;30743;52.008;5.644;2023-07-30T08:25:17;12.07;;;4.32;;
45007;SDS011;30743;52.008;5.644;2023-07-30T08:27:42;11.18;;;4.32;;
45007;SDS011;30743;52.008;5.644;2023-07-30T08:30:08;11.07;;;4.25;;
45007;SDS011;30743;52.008;5.644;2023-07-30T08:32:34;9.35;;;4.10;;
45007;SDS011;30743;52.008;5.644;2023-07-30T08:34:59;10.52;;;4.22;;
45007;SDS011;30743;52.008;5.644;2023-07-30T08:37:25;10.77;;;3.88;;
45007;SDS011;30743;52.008;5.644;2023-07-30T08:39:51;12.60;;;3.47;;
45007;SDS011;30743;52.008;5.644;2023-07-30T08:42:17;10.90;;;4.15;;
45007;SDS011;30743;52.008;5.644;2023-07-30T08:44:42;11.10;;;3.53;;
45007;SDS011;30743;52.008;5.644;2023-07-30T08:47:08;9.50;;;3.75;;
45007;SDS011;30743;52.008;5.644;2023-07-30T08:49:34;8.38;;;3.05;;
45007;SDS011;30743;52.008;5.644;2023-07-30T08:52:00;11.52;;;3.95;;
45007;SDS011;30743;52.008;5.644;2023-07-30T08:54:28;14.43;;;4.05;;
45007;SDS011;30743;52.008;5.644;2023-07-30T08:56:56;8.75;;;3.58;;
45007;SDS011;30743;52.008;5.644;2023-07-30T08:59:22;12.73;;;3.63;;
45007;SDS011;30743;52.008;5.644;2023-07-30T09:04:18;14.43;;;2.67;;
45007;SDS011;30743;52.008;5.644;2023-07-30T09:06:47;8.40;;;2.20;;
45007;SDS011;30743;52.008;5.644;2023-07-30T09:09:13;7.18;;;2.03;;
45007;SDS011;30743;52.008;5.644;2023-07-30T09:11:39;6.22;;;2.15;;
45007;SDS011;30743;52.008;5.644;2023-07-30T09:14:05;9.60;;;2.63;;
45007;SDS011;30743;52.008;5.644;2023-07-30T09:16:31;10.45;;;2.60;;
45007;SDS011;30743;52.008;5.644;2023-07-30T09:18:56;7.93;;;2.53;;
45007;SDS011;30743;52.008;5.644;2023-07-30T09:21:29;7.90;;;2.30;;
45007;SDS011;30743;52.008;5.644;2023-07-30T09:24:00;8.43;;;2.83;;
45007;SDS011;30743;52.008;5.644;2023-07-30T09:26:39;9.15;;;2.55;;
45007;SDS011;30743;52.008;5.644;2023-07-30T09:29:08;8.95;;;2.35;;
45007;SDS011;30743;52.008;5.644;2023-07-30T09:31:52;10.50;;;2.70;;
45007;SDS011;30743;52.008;5.644;2023-07-30T09:34:22;9.88;;;2.85;;
45007;SDS011;30743;52.008;5.644;2023-07-30T09:36:55;9.90;;;2.53;;
45007;SDS011;30743;52.008;5.644;2023-07-30T09:39:24;12.38;;;2.60;;
45007;SDS011;30743;52.008;5.644;2023-07-30T09:41:51;7.20;;;2.20;;
45007;SDS011;30743;52.008;5.644;2023-07-30T09:44:18;5.32;;;1.75;;
45007;SDS011;30743;52.008;5.644;2023-07-30T09:46:46;7.95;;;1.65;;
45007;SDS011;30743;52.008;5.644;2023-07-30T09:49:13;8.50;;;1.50;;
45007;SDS011;30743;52.008;5.644;2023-07-30T09:51:40;7.15;;;1.48;;
45007;SDS011;30743;52.008;5.644;2023-07-30T09:54:09;5.32;;;1.15;;
45007;SDS011;30743;52.008;5.644;2023-07-30T09:56:37;7.22;;;1.75;;
45007;SDS011;30743;52.008;5.644;2023-07-30T09:59:04;10.50;;;1.40;;
45007;SDS011;30743;52.008;5.644;2023-07-30T10:01:33;3.70;;;1.40;;
45007;SDS011;30743;52.008;5.644;2023-07-30T10:04:09;10.32;;;1.67;;
45007;SDS011;30743;52.008;5.644;2023-07-30T10:06:36;6.72;;;2.05;;
45007;SDS011;30743;52.008;5.644;2023-07-30T10:09:09;9.13;;;2.05;;
45007;SDS011;30743;52.008;5.644;2023-07-30T10:11:37;6.38;;;2.30;;
45007;SDS011;30743;52.008;5.644;2023-07-30T10:14:04;9.90;;;2.15;;
45007;SDS011;30743;52.008;5.644;2023-07-30T10:16:31;8.45;;;2.72;;
45007;SDS011;30743;52.008;5.644;2023-07-30T10:18:57;8.00;;;1.60;;
45007;SDS011;30743;52.008;5.644;2023-07-30T10:21:23;4.85;;;1.45;;
45007;SDS011;30743;52.008;5.644;2023-07-30T10:23:57;9.20;;;2.25;;
45007;SDS011;30743;52.008;5.644;2023-07-30T10:26:26;6.38;;;1.92;;
45007;SDS011;30743;52.008;5.644;2023-07-30T10:29:14;8.15;;;1.67;;
45007;SDS011;30743;52.008;5.644;2023-07-30T10:31:41;4.88;;;1.58;;
45007;SDS011;30743;52.008;5.644;2023-07-30T10:34:07;7.97;;;1.92;;
45007;SDS011;30743;52.008;5.644;2023-07-30T10:36:41;5.75;;;1.42;;
45007;SDS011;30743;52.008;5.644;2023-07-30T10:39:15;6.60;;;1.63;;
45007;SDS011;30743;52.008;5.644;2023-07-30T10:41:46;7.80;;;1.27;;
45007;SDS011;30743;52.008;5.644;2023-07-30T10:44:23;5.45;;;1.67;;
45007;SDS011;30743;52.008;5.644;2023-07-30T10:46:52;6.22;;;2.00;;
45007;SDS011;30743;52.008;5.644;2023-07-30T10:49:18;5.53;;;1.15;;
45007;SDS011;30743;52.008;5.644;2023-07-30T10:51:44;4.78;;;1.40;;
45007;SDS011;30743;52.008;5.644;2023-07-30T10:54:09;4.75;;;1.52;;
45007;SDS011;30743;52.008;5.644;2023-07-30T10:56:36;4.53;;;1.50;;
45007;SDS011;30743;52.008;5.644;2023-07-30T10:59:05;5.28;;;1.50;;
45007;SDS011;30743;52.008;5.644;2023-07-30T11:01:35;5.53;;;1.75;;
45007;SDS011;30743;52.008;5.644;2023-07-30T11:04:12;5.10;;;1.30;;
45007;SDS011;30743;52.008;5.644;2023-07-30T11:06:45;7.63;;;1.65;;
45007;SDS011;30743;52.008;5.644;2023-07-30T11:11:45;6.38;;;1.23;;
45007;SDS011;30743;52.008;5.644;2023-07-30T11:14:15;5.38;;;1.55;;
45007;SDS011;30743;52.008;5.644;2023-07-30T11:16:47;6.65;;;1.77;;
45007;SDS011;30743;52.008;5.644;2023-07-30T11:19:13;5.82;;;1.58;;
45007;SDS011;30743;52.008;5.644;2023-07-30T11:21:43;5.72;;;1.10;;
45007;SDS011;30743;52.008;5.644;2023-07-30T11:24:10;5.72;;;1.45;;
45007;SDS011;30743;52.008;5.644;2023-07-30T11:26:35;6.55;;;1.33;;
45007;SDS011;30743;52.008;5.644;2023-07-30T11:29:01;5.30;;;1.05;;
45007;SDS011;30743;52.008;5.644;2023-07-30T11:31:45;5.78;;;1.20;;
45007;SDS011;30743;52.008;5.644;2023-07-30T11:34:11;5.95;;;1.55;;
45007;SDS011;30743;52.008;5.644;2023-07-30T11:36:38;5.57;;;0.98;;
45007;SDS011;30743;52.008;5.644;2023-07-30T11:39:05;6.15;;;1.25;;
45007;SDS011;30743;52.008;5.644;2023-07-30T11:41:31;3.13;;;0.95;;
45007;SDS011;30743;52.008;5.644;2023-07-30T11:43:57;6.30;;;1.20;;
45007;SDS011;30743;52.008;5.644;2023-07-30T11:46:23;2.15;;;0.68;;
45007;SDS011;30743;52.008;5.644;2023-07-30T11:48:49;5.07;;;1.55;;
45007;SDS011;30743;52.008;5.644;2023-07-30T11:51:24;5.38;;;0.70;;
45007;SDS011;30743;52.008;5.644;2023-07-30T11:53:54;4.80;;;0.88;;
45007;SDS011;30743;52.008;5.644;2023-07-30T11:56:25;3.58;;;0.70;;
45007;SDS011;30743;52.008;5.644;2023-07-30T11:58:59;3.78;;;1.23;;
45007;SDS011;30743;52.008;5.644;2023-07-30T12:01:31;8.15;;;1.58;;
45007;SDS011;30743;52.008;5.644;2023-07-30T12:04:01;4.07;;;0.85;;
45007;SDS011;30743;52.008;5.644;2023-07-30T12:06:41;8.07;;;1.48;;
45007;SDS011;30743;52.008;5.644;2023-07-30T12:11:51;5.00;;;0.85;;
45007;SDS011;30743;52.008;5.644;2023-07-30T12:14:18;3.22;;;0.82;;
45007;SDS011;30743;52.008;5.644;2023-07-30T12:16:45;2.70;;;0.80;;
45007;SDS011;30743;52.008;5.644;2023-07-30T12:19:10;7.40;;;1.85;;
45007;SDS011;30743;52.008;5.644;2023-07-30T12:21:36;3.72;;;1.02;;
45007;SDS011;30743;52.008;5.644;2023-07-30T12:24:01;3.45;;;0.90;;
45007;SDS011;30743;52.008;5.644;2023-07-30T12:26:28;3.50;;;0.80;;
45007;SDS011;30743;52.008;5.644;2023-07-30T12:28:54;3.42;;;0.90;;
45007;SDS011;30743;52.008;5.644;2023-07-30T12:31:19;2.42;;;0.68;;
45007;SDS011;30743;52.008;5.644;2023-07-30T12:33:45;3.88;;;0.82;;
45007;SDS011;30743;52.008;5.644;2023-07-30T12:36:10;2.38;;;0.60;;
45007;SDS011;30743;52.008;5.644;2023-07-30T12:38:36;4.50;;;1.08;;
45007;SDS011;30743;52.008;5.644;2023-07-30T12:41:01;3.15;;;0.80;;
45007;SDS011;30743;52.008;5.644;2023-07-30T12:43:27;2.53;;;0.70;;
45007;SDS011;30743;52.008;5.644;2023-07-30T12:45:52;3.78;;;0.93;;
45007;SDS011;30743;52.008;5.644;2023-07-30T12:48:18;2.88;;;0.77;;
45007;SDS011;30743;52.008;5.644;2023-07-30T12:50:44;5.35;;;1.27;;
45007;SDS011;30743;52.008;5.644;2023-07-30T12:53:10;4.38;;;0.85;;
45007;SDS011;30743;52.008;5.644;2023-07-30T12:55:36;3.13;;;0.80;;
45007;SDS011;30743;52.008;5.644;2023-07-30T12:58:03;4.90;;;1.02;;
45007;SDS011;30743;52.008;5.644;2023-07-30T13:00:28;4.35;;;1.02;;
45007;SDS011;30743;52.008;5.644;2023-07-30T13:02:54;3.22;;;0.90;;
45007;SDS011;30743;52.008;5.644;2023-07-30T13:05:21;4.25;;;1.10;;
45007;SDS011;30743;52.008;5.644;2023-07-30T13:07:47;9.00;;;0.90;;
45007;SDS011;30743;52.008;5.644;2023-07-30T13:10:13;2.65;;;0.55;;
45007;SDS011;30743;52.008;5.644;2023-07-30T13:12:38;4.32;;;1.00;;
45007;SDS011;30743;52.008;5.644;2023-07-30T13:15:04;5.10;;;0.70;;
45007;SDS011;30743;52.008;5.644;2023-07-30T13:17:31;2.33;;;0.60;;
45007;SDS011;30743;52.008;5.644;2023-07-30T13:19:57;3.08;;;0.75;;
45007;SDS011;30743;52.008;5.644;2023-07-30T13:22:22;3.17;;;0.75;;
45007;SDS011;30743;52.008;5.644;2023-07-30T13:24:48;2.88;;;0.75;;
45007;SDS011;30743;52.008;5.644;2023-07-30T13:27:14;4.60;;;0.70;;
45007;SDS011;30743;52.008;5.644;2023-07-30T13:29:39;4.95;;;1.13;;
45007;SDS011;30743;52.008;5.644;2023-07-30T13:32:05;1.90;;;0.60;;
45007;SDS011;30743;52.008;5.644;2023-07-30T13:34:31;6.93;;;0.70;;
45007;SDS011;30743;52.008;5.644;2023-07-30T13:36:57;3.42;;;0.57;;
45007;SDS011;30743;52.008;5.644;2023-07-30T13:39:22;1.23;;;0.70;;
45007;SDS011;30743;52.008;5.644;2023-07-30T13:41:48;2.42;;;0.70;;
45007;SDS011;30743;52.008;5.644;2023-07-30T13:44:13;3.88;;;0.73;;
45007;SDS011;30743;52.008;5.644;2023-07-30T13:46:39;5.03;;;0.88;;
45007;SDS011;30743;52.008;5.644;2023-07-30T13:49:05;2.35;;;0.85;;
45007;SDS011;30743;52.008;5.644;2023-07-30T13:51:31;7.15;;;1.70;;
45007;SDS011;30743;52.008;5.644;2023-07-30T13:54:00;2.92;;;1.23;;
45007;SDS011;30743;52.008;5.644;2023-07-30T13:56:27;6.60;;;1.42;;
45007;SDS011;30743;52.008;5.644;2023-07-30T13:58:53;4.25;;;1.50;;
45007;SDS011;30743;52.008;5.644;2023-07-30T14:01:19;3.53;;;1.20;;
45007;SDS011;30743;52.008;5.644;2023-07-30T14:03:45;4.65;;;1.10;;
45007;SDS011;30743;52.008;5.644;2023-07-30T14:06:10;4.05;;;1.33;;
45007;SDS011;30743;52.008;5.644;2023-07-30T14:08:36;3.80;;;1.25;;
45007;SDS011;30743;52.008;5.644;2023-07-30T14:11:02;6.65;;;1.40;;
45007;SDS011;30743;52.008;5.644;2023-07-30T14:13:27;4.40;;;1.38;;
45007;SDS011;30743;52.008;5.644;2023-07-30T14:15:53;9.65;;;1.45;;
45007;SDS011;30743;52.008;5.644;2023-07-30T14:18:19;4.55;;;1.38;;
45007;SDS011;30743;52.008;5.644;2023-07-30T14:20:45;4.05;;;1.00;;
45007;SDS011;30743;52.008;5.644;2023-07-30T14:23:10;3.63;;;1.00;;
45007;SDS011;30743;52.008;5.644;2023-07-30T14:25:36;5.40;;;1.40;;
45007;SDS011;30743;52.008;5.644;2023-07-30T14:28:02;4.63;;;0.80;;
45007;SDS011;30743;52.008;5.644;2023-07-30T14:30:28;5.63;;;1.20;;
45007;SDS011;30743;52.008;5.644;2023-07-30T14:32:53;4.30;;;1.00;;
45007;SDS011;30743;52.008;5.644;2023-07-30T14:35:19;4.20;;;1.00;;
45007;SDS011;30743;52.008;5.644;2023-07-30T14:37:45;6.72;;;1.30;;
45007;SDS011;30743;52.008;5.644;2023-07-30T14:40:10;5.45;;;0.70;;
45007;SDS011;30743;52.008;5.644;2023-07-30T14:42:36;5.07;;;0.93;;
45007;SDS011;30743;52.008;5.644;2023-07-30T14:45:02;5.05;;;1.10;;
45007;SDS011;30743;52.008;5.644;2023-07-30T14:47:27;4.72;;;1.10;;